• Join FlightAware (Why Join?)
  • Login
  • US Flag 
04:18AM EDT


 

Airport Tracker/Info


-or-


 

Live Flight TrackerFlight Track Log ✈ SKW7367 ✈ 20-Nov-2013 ✈ KDTW - KAPN

Flight Track Log - Related Links

Times and Time Zones

All times are in EST time to prevent confusion due to time zone crossing. See the SKW7367 flight status page for this flight to view local times or setup timezone preferences in your user account.

Time Position Orientation Groundspeed Altitude Reporting Facility
EST Latitude Longitude Course Direction KTS MPH feet Rate Location/Type
04:01PM 42.2106 -83.3650 North 153 176 1,400  Level Cleveland Center
04:02PM 42.1839 -83.4092 231° Southwest 221 254 3,400 2,880 Climbing Cleveland Center
04:03PM 42.1558 -83.4511 228° Southwest 231 266 5,800 3,360 Climbing Cleveland Center
04:03PM 42.1386 -83.4786 230° Southwest 256 295 6,900 3,180 Climbing Cleveland Center
04:04PM 42.1125 -83.5264 234° Southwest 251 289 9,100 3,000 Climbing Cleveland Center
04:04PM 42.1169 -83.5656 279° West 298 343 10,000 840 Climbing Cleveland Center
04:05PM 42.1414 -83.6239 299° West 318 366 10,000 60 Level Cleveland Center
04:06PM 42.6753 -83.3855 North  Level Estimated
04:06PM 42.2069 -83.7239 312° West 358 412 10,200  Level Cleveland Center
04:07PM 42.3142 -83.7033 North 392 451 11,800 1,800 Climbing Cleveland Center
04:08PM 42.4403 -83.6342 22° Northeast 400 460 14,000 1,440 Climbing Cleveland Center
04:09PM 42.5489 -83.5739 22° Northeast 414 476 14,800 420 Climbing Cleveland Center
04:10PM 42.6533 -83.5150 23° Northeast 409 471 14,900  Climbing Cleveland Center
04:11PM 42.7561 -83.4578 22° Northeast 399 459 14,900  Level Cleveland Center
04:12PM 42.8561 -83.4003 23° Northeast 393 452 14,900  Level Cleveland Center
04:13PM 42.9608 -83.3669 13° North 390 449 14,900  Level Cleveland Center
04:14PM 43.0614 -83.3875 352° North 373 429 14,900  Level Cleveland Center
04:15PM 43.1553 -83.4875 322° Northwest 358 412 15,000  Climbing Cleveland Center
04:16PM 43.2183 -83.5875 311° West 350 403 15,000  Level Cleveland Center
04:17PM 43.2825 -83.6886 311° West 353 406 15,000  Level Cleveland Center
04:18PM 43.3475 -83.7872 312° West 352 405 15,000  Level Cleveland Center
04:19PM 43.4114 -83.8892 311° West 353 406 15,000  Level Cleveland Center
04:20PM 43.4906 -84.0075 313° West 350 403 15,000  Level Cleveland Center
04:21PM 43.5919 -84.0508 343° North 366 421 15,000  Level Cleveland Center
04:22PM 43.6953 -84.0247 10° North 378 435 15,000  Level Cleveland Center
04:23PM 43.7964 -83.9894 14° North 377 434 15,000 -60 Level Cleveland Center
04:24PM 43.8986 -83.9564 13° North 378 435 14,900 -60 Descending Cleveland Center
04:25PM 44.0011 -83.9225 13° North 380 437 14,900  Level Cleveland Center
04:26PM 44.1028 -83.8892 13° North 378 435 14,900  Level Cleveland Center
04:27PM 44.2264 -83.8483 13° North 380 437 14,900  Level Cleveland Center
04:28PM 44.3283 -83.8139 14° North 379 436 14,900  Level Cleveland Center
04:29PM 44.4306 -83.7775 14° North 380 437 14,900 -180 Level Cleveland Center
04:31PM 44.5344 -83.7444 13° North 382 440 14,600 -660 Descending Cleveland Center
04:32PM 44.6431 -83.7194 North 376 433 13,600 -1,860 Descending Cleveland Center
04:33PM 44.7403 -83.6753 18° North 313 360 10,500 -2,340 Descending Minneapolis Center
04:34PM 44.8206 -83.6503 12° North 303 349 8,500 -2,040 Descending Minneapolis Center
04:35PM 44.9056 -83.6272 11° North 292 336 6,400 -1,860 Descending Minneapolis Center
04:36PM 44.9831 -83.6156 North 286 329 4,700 -1,440 Descending Minneapolis Center
04:37PM 45.0636 -83.6222 357° North 268 308 3,500 -960 Descending Minneapolis Center
04:38PM 45.1297 -83.6264 357° North 241 277 2,800 -660 Descending Minneapolis Center
04:39PM 45.1511 -83.5847 54° Northeast 146 168 2,200 -540 Descending Minneapolis Center
04:40PM 45.1267 -83.5617 146° Southeast 120 138 1,700 -660 Descending Minneapolis Center
04:41PM 45.0958 -83.5611 179° South 113 130 900 -780 Descending Minneapolis Center